sensor_id;sensor_type;location;lat;lon;timestamp;P1;durP1;ratioP1;P2;durP2;ratioP2
84023;SDS011;74109;45.636;25.582;2024-03-17T00:01:47;13.30;;;4.20;;
84023;SDS011;74109;45.636;25.582;2024-03-17T00:04:15;11.60;;;4.40;;
84023;SDS011;74109;45.636;25.582;2024-03-17T00:06:43;12.40;;;4.60;;
84023;SDS011;74109;45.636;25.582;2024-03-17T00:09:11;10.50;;;3.40;;
84023;SDS011;74109;45.636;25.582;2024-03-17T00:11:39;11.20;;;4.20;;
84023;SDS011;74109;45.636;25.582;2024-03-17T00:14:07;9.60;;;3.40;;
84023;SDS011;74109;45.636;25.582;2024-03-17T00:16:35;12.80;;;4.50;;
84023;SDS011;74109;45.636;25.582;2024-03-17T00:19:03;9.60;;;3.60;;
84023;SDS011;74109;45.636;25.582;2024-03-17T00:21:31;9.40;;;3.60;;
84023;SDS011;74109;45.636;25.582;2024-03-17T00:23:59;10.80;;;5.00;;
84023;SDS011;74109;45.636;25.582;2024-03-17T00:26:27;9.90;;;3.80;;
84023;SDS011;74109;45.636;25.582;2024-03-17T00:28:56;9.50;;;3.40;;
84023;SDS011;74109;45.636;25.582;2024-03-17T00:31:24;10.60;;;4.30;;
84023;SDS011;74109;45.636;25.582;2024-03-17T00:33:53;12.00;;;4.00;;
84023;SDS011;74109;45.636;25.582;2024-03-17T00:36:21;15.40;;;5.80;;
84023;SDS011;74109;45.636;25.582;2024-03-17T00:38:49;15.20;;;6.50;;
84023;SDS011;74109;45.636;25.582;2024-03-17T00:41:22;15.30;;;5.50;;
84023;SDS011;74109;45.636;25.582;2024-03-17T00:43:51;13.20;;;5.60;;
84023;SDS011;74109;45.636;25.582;2024-03-17T00:46:20;12.90;;;4.60;;
84023;SDS011;74109;45.636;25.582;2024-03-17T00:48:48;15.70;;;5.80;;
84023;SDS011;74109;45.636;25.582;2024-03-17T00:51:17;13.00;;;5.20;;
84023;SDS011;74109;45.636;25.582;2024-03-17T00:53:46;12.70;;;4.30;;
84023;SDS011;74109;45.636;25.582;2024-03-17T00:56:14;13.70;;;4.90;;
84023;SDS011;74109;45.636;25.582;2024-03-17T00:58:42;12.90;;;4.90;;
84023;SDS011;74109;45.636;25.582;2024-03-17T01:01:12;15.80;;;5.00;;
84023;SDS011;74109;45.636;25.582;2024-03-17T01:03:40;12.50;;;3.90;;
84023;SDS011;74109;45.636;25.582;2024-03-17T01:06:08;18.20;;;6.40;;
84023;SDS011;74109;45.636;25.582;2024-03-17T01:08:37;17.70;;;5.50;;
84023;SDS011;74109;45.636;25.582;2024-03-17T01:11:04;18.00;;;7.10;;
84023;SDS011;74109;45.636;25.582;2024-03-17T01:13:36;15.80;;;7.00;;
84023;SDS011;74109;45.636;25.582;2024-03-17T01:16:09;16.40;;;5.80;;
84023;SDS011;74109;45.636;25.582;2024-03-17T01:18:37;18.40;;;6.70;;
84023;SDS011;74109;45.636;25.582;2024-03-17T01:21:06;15.90;;;6.30;;
84023;SDS011;74109;45.636;25.582;2024-03-17T01:23:34;15.70;;;5.60;;
84023;SDS011;74109;45.636;25.582;2024-03-17T01:26:02;14.20;;;5.70;;
84023;SDS011;74109;45.636;25.582;2024-03-17T01:28:31;15.90;;;6.00;;
84023;SDS011;74109;45.636;25.582;2024-03-17T01:30:59;18.10;;;6.10;;
84023;SDS011;74109;45.636;25.582;2024-03-17T01:33:27;15.30;;;6.30;;
84023;SDS011;74109;45.636;25.582;2024-03-17T01:35:55;18.80;;;6.30;;
84023;SDS011;74109;45.636;25.582;2024-03-17T01:38:23;14.80;;;5.50;;
84023;SDS011;74109;45.636;25.582;2024-03-17T01:40:51;11.60;;;5.80;;
84023;SDS011;74109;45.636;25.582;2024-03-17T01:43:19;21.70;;;8.70;;
84023;SDS011;74109;45.636;25.582;2024-03-17T01:45:47;25.40;;;10.50;;
84023;SDS011;74109;45.636;25.582;2024-03-17T01:48:15;23.20;;;9.00;;
84023;SDS011;74109;45.636;25.582;2024-03-17T01:55:44;20.80;;;8.30;;
84023;SDS011;74109;45.636;25.582;2024-03-17T01:58:14;19.80;;;8.20;;
84023;SDS011;74109;45.636;25.582;2024-03-17T02:00:43;26.80;;;7.80;;
84023;SDS011;74109;45.636;25.582;2024-03-17T02:03:11;16.90;;;7.20;;
84023;SDS011;74109;45.636;25.582;2024-03-17T02:05:39;17.10;;;7.00;;
84023;SDS011;74109;45.636;25.582;2024-03-17T02:08:07;18.60;;;7.10;;
84023;SDS011;74109;45.636;25.582;2024-03-17T02:10:38;24.80;;;8.00;;
84023;SDS011;74109;45.636;25.582;2024-03-17T02:13:06;17.90;;;7.90;;
84023;SDS011;74109;45.636;25.582;2024-03-17T02:15:34;16.00;;;7.50;;
84023;SDS011;74109;45.636;25.582;2024-03-17T02:18:02;17.10;;;7.00;;
84023;SDS011;74109;45.636;25.582;2024-03-17T02:20:30;17.10;;;7.50;;
84023;SDS011;74109;45.636;25.582;2024-03-17T02:23:17;23.60;;;8.90;;
84023;SDS011;74109;45.636;25.582;2024-03-17T02:28:16;23.80;;;9.70;;
84023;SDS011;74109;45.636;25.582;2024-03-17T02:30:44;25.90;;;9.10;;
84023;SDS011;74109;45.636;25.582;2024-03-17T02:33:12;21.70;;;9.30;;
84023;SDS011;74109;45.636;25.582;2024-03-17T02:35:40;20.00;;;8.60;;
84023;SDS011;74109;45.636;25.582;2024-03-17T02:38:15;18.00;;;7.60;;
84023;SDS011;74109;45.636;25.582;2024-03-17T02:41:03;18.70;;;8.10;;
84023;SDS011;74109;45.636;25.582;2024-03-17T02:43:31;17.90;;;7.40;;
84023;SDS011;74109;45.636;25.582;2024-03-17T02:45:59;14.90;;;6.60;;
84023;SDS011;74109;45.636;25.582;2024-03-17T02:48:31;15.90;;;7.00;;
84023;SDS011;74109;45.636;25.582;2024-03-17T02:50:59;19.80;;;7.60;;
84023;SDS011;74109;45.636;25.582;2024-03-17T02:53:28;15.50;;;7.00;;
84023;SDS011;74109;45.636;25.582;2024-03-17T02:55:57;14.70;;;6.20;;
84023;SDS011;74109;45.636;25.582;2024-03-17T02:58:25;22.00;;;7.50;;
84023;SDS011;74109;45.636;25.582;2024-03-17T03:00:53;19.60;;;7.90;;
84023;SDS011;74109;45.636;25.582;2024-03-17T03:03:21;19.40;;;7.80;;
84023;SDS011;74109;45.636;25.582;2024-03-17T03:05:50;21.00;;;7.50;;
84023;SDS011;74109;45.636;25.582;2024-03-17T03:08:19;17.10;;;6.20;;
84023;SDS011;74109;45.636;25.582;2024-03-17T03:10:47;18.00;;;7.50;;
84023;SDS011;74109;45.636;25.582;2024-03-17T03:13:15;17.30;;;7.80;;
84023;SDS011;74109;45.636;25.582;2024-03-17T03:15:43;19.50;;;6.80;;
84023;SDS011;74109;45.636;25.582;2024-03-17T03:18:11;14.40;;;5.80;;
84023;SDS011;74109;45.636;25.582;2024-03-17T03:20:39;12.90;;;6.00;;
84023;SDS011;74109;45.636;25.582;2024-03-17T03:23:08;17.60;;;7.20;;
84023;SDS011;74109;45.636;25.582;2024-03-17T03:25:36;16.10;;;6.20;;
84023;SDS011;74109;45.636;25.582;2024-03-17T03:28:04;20.70;;;7.60;;
84023;SDS011;74109;45.636;25.582;2024-03-17T03:30:35;17.80;;;7.00;;
84023;SDS011;74109;45.636;25.582;2024-03-17T03:33:05;26.50;;;9.70;;
84023;SDS011;74109;45.636;25.582;2024-03-17T03:35:34;24.50;;;10.90;;
84023;SDS011;74109;45.636;25.582;2024-03-17T03:38:02;26.10;;;10.00;;
84023;SDS011;74109;45.636;25.582;2024-03-17T03:40:30;26.50;;;10.20;;
84023;SDS011;74109;45.636;25.582;2024-03-17T03:43:00;22.90;;;8.40;;
84023;SDS011;74109;45.636;25.582;2024-03-17T03:45:28;22.00;;;9.00;;
84023;SDS011;74109;45.636;25.582;2024-03-17T03:47:56;20.40;;;7.80;;
84023;SDS011;74109;45.636;25.582;2024-03-17T03:50:24;20.10;;;7.90;;
84023;SDS011;74109;45.636;25.582;2024-03-17T03:52:52;17.70;;;8.10;;
84023;SDS011;74109;45.636;25.582;2024-03-17T03:55:20;20.30;;;8.70;;
84023;SDS011;74109;45.636;25.582;2024-03-17T03:57:48;16.20;;;6.10;;
84023;SDS011;74109;45.636;25.582;2024-03-17T04:00:19;18.40;;;7.40;;
84023;SDS011;74109;45.636;25.582;2024-03-17T04:02:51;16.90;;;6.80;;
84023;SDS011;74109;45.636;25.582;2024-03-17T04:05:20;17.20;;;7.00;;
84023;SDS011;74109;45.636;25.582;2024-03-17T04:07:49;15.20;;;6.10;;
84023;SDS011;74109;45.636;25.582;2024-03-17T04:10:18;20.60;;;8.60;;
84023;SDS011;74109;45.636;25.582;2024-03-17T04:12:48;20.40;;;8.20;;
84023;SDS011;74109;45.636;25.582;2024-03-17T04:15:16;20.40;;;7.80;;
84023;SDS011;74109;45.636;25.582;2024-03-17T04:17:45;21.80;;;8.40;;
84023;SDS011;74109;45.636;25.582;2024-03-17T04:20:13;19.90;;;7.20;;
84023;SDS011;74109;45.636;25.582;2024-03-17T04:22:41;14.80;;;6.50;;
84023;SDS011;74109;45.636;25.582;2024-03-17T04:25:12;17.90;;;7.90;;
84023;SDS011;74109;45.636;25.582;2024-03-17T04:27:41;20.10;;;8.20;;
84023;SDS011;74109;45.636;25.582;2024-03-17T04:30:09;19.80;;;8.30;;
84023;SDS011;74109;45.636;25.582;2024-03-17T04:32:39;16.90;;;7.30;;
84023;SDS011;74109;45.636;25.582;2024-03-17T04:35:12;14.70;;;5.80;;
84023;SDS011;74109;45.636;25.582;2024-03-17T04:37:40;22.40;;;8.40;;
84023;SDS011;74109;45.636;25.582;2024-03-17T04:40:08;24.90;;;8.60;;
84023;SDS011;74109;45.636;25.582;2024-03-17T04:42:39;18.30;;;9.00;;
84023;SDS011;74109;45.636;25.582;2024-03-17T04:45:07;24.60;;;8.90;;
84023;SDS011;74109;45.636;25.582;2024-03-17T04:47:37;22.10;;;9.10;;
84023;SDS011;74109;45.636;25.582;2024-03-17T04:50:05;25.30;;;9.50;;
84023;SDS011;74109;45.636;25.582;2024-03-17T04:52:34;22.90;;;9.40;;
84023;SDS011;74109;45.636;25.582;2024-03-17T04:55:05;23.10;;;9.40;;
84023;SDS011;74109;45.636;25.582;2024-03-17T04:57:33;18.40;;;7.30;;
84023;SDS011;74109;45.636;25.582;2024-03-17T05:00:02;20.70;;;9.20;;
84023;SDS011;74109;45.636;25.582;2024-03-17T05:02:34;20.50;;;9.20;;
84023;SDS011;74109;45.636;25.582;2024-03-17T05:05:02;21.10;;;8.30;;
84023;SDS011;74109;45.636;25.582;2024-03-17T05:07:33;14.40;;;5.60;;
84023;SDS011;74109;45.636;25.582;2024-03-17T05:10:01;24.80;;;10.60;;
84023;SDS011;74109;45.636;25.582;2024-03-17T05:12:33;28.10;;;11.30;;
84023;SDS011;74109;45.636;25.582;2024-03-17T05:15:01;29.40;;;12.60;;
84023;SDS011;74109;45.636;25.582;2024-03-17T05:17:31;25.40;;;11.50;;
84023;SDS011;74109;45.636;25.582;2024-03-17T05:19:59;26.20;;;10.70;;
84023;SDS011;74109;45.636;25.582;2024-03-17T05:22:27;18.70;;;9.10;;
84023;SDS011;74109;45.636;25.582;2024-03-17T05:24:55;17.70;;;8.30;;
84023;SDS011;74109;45.636;25.582;2024-03-17T05:27:24;19.40;;;8.70;;
84023;SDS011;74109;45.636;25.582;2024-03-17T05:29:52;25.10;;;9.90;;
84023;SDS011;74109;45.636;25.582;2024-03-17T05:32:20;18.50;;;7.90;;
84023;SDS011;74109;45.636;25.582;2024-03-17T05:34:48;21.50;;;9.40;;
84023;SDS011;74109;45.636;25.582;2024-03-17T05:37:16;21.90;;;9.70;;
84023;SDS011;74109;45.636;25.582;2024-03-17T05:39:44;25.70;;;10.80;;
84023;SDS011;74109;45.636;25.582;2024-03-17T05:42:12;25.70;;;11.10;;
84023;SDS011;74109;45.636;25.582;2024-03-17T05:44:39;29.80;;;12.40;;
84023;SDS011;74109;45.636;25.582;2024-03-17T05:47:17;24.20;;;10.50;;
84023;SDS011;74109;45.636;25.582;2024-03-17T05:49:46;29.40;;;12.30;;
84023;SDS011;74109;45.636;25.582;2024-03-17T05:52:14;29.50;;;12.80;;
84023;SDS011;74109;45.636;25.582;2024-03-17T05:54:42;19.40;;;8.90;;
84023;SDS011;74109;45.636;25.582;2024-03-17T05:57:10;24.60;;;10.60;;
84023;SDS011;74109;45.636;25.582;2024-03-17T05:59:40;22.00;;;10.10;;
84023;SDS011;74109;45.636;25.582;2024-03-17T06:02:08;23.30;;;10.50;;
84023;SDS011;74109;45.636;25.582;2024-03-17T06:04:37;20.90;;;10.30;;
84023;SDS011;74109;45.636;25.582;2024-03-17T06:07:06;22.90;;;10.40;;
84023;SDS011;74109;45.636;25.582;2024-03-17T06:09:35;24.10;;;11.10;;
84023;SDS011;74109;45.636;25.582;2024-03-17T06:12:03;27.10;;;11.50;;
84023;SDS011;74109;45.636;25.582;2024-03-17T06:14:31;21.90;;;9.10;;
84023;SDS011;74109;45.636;25.582;2024-03-17T06:17:01;32.80;;;12.70;;
84023;SDS011;74109;45.636;25.582;2024-03-17T06:19:30;28.80;;;13.00;;
84023;SDS011;74109;45.636;25.582;2024-03-17T06:21:58;36.70;;;14.50;;
84023;SDS011;74109;45.636;25.582;2024-03-17T06:24:26;34.60;;;14.60;;
84023;SDS011;74109;45.636;25.582;2024-03-17T06:26:58;24.00;;;11.90;;
84023;SDS011;74109;45.636;25.582;2024-03-17T06:29:26;22.70;;;10.60;;
84023;SDS011;74109;45.636;25.582;2024-03-17T06:31:54;25.20;;;12.00;;
84023;SDS011;74109;45.636;25.582;2024-03-17T06:34:22;22.20;;;8.80;;
84023;SDS011;74109;45.636;25.582;2024-03-17T06:36:50;26.70;;;12.10;;
84023;SDS011;74109;45.636;25.582;2024-03-17T06:39:18;25.00;;;11.90;;
84023;SDS011;74109;45.636;25.582;2024-03-17T06:41:48;21.20;;;10.70;;
84023;SDS011;74109;45.636;25.582;2024-03-17T06:44:17;26.00;;;11.00;;
84023;SDS011;74109;45.636;25.582;2024-03-17T06:46:45;23.70;;;10.80;;
84023;SDS011;74109;45.636;25.582;2024-03-17T06:49:14;23.50;;;9.20;;
84023;SDS011;74109;45.636;25.582;2024-03-17T06:51:43;26.70;;;10.70;;
84023;SDS011;74109;45.636;25.582;2024-03-17T06:54:11;21.80;;;10.70;;
84023;SDS011;74109;45.636;25.582;2024-03-17T06:56:39;23.50;;;10.00;;
84023;SDS011;74109;45.636;25.582;2024-03-17T06:59:09;28.60;;;12.40;;
84023;SDS011;74109;45.636;25.582;2024-03-17T07:01:37;23.70;;;11.80;;
84023;SDS011;74109;45.636;25.582;2024-03-17T07:04:05;22.50;;;10.60;;
84023;SDS011;74109;45.636;25.582;2024-03-17T07:06:35;23.50;;;10.40;;
84023;SDS011;74109;45.636;25.582;2024-03-17T07:09:04;24.70;;;11.20;;
84023;SDS011;74109;45.636;25.582;2024-03-17T07:11:37;24.30;;;11.50;;
84023;SDS011;74109;45.636;25.582;2024-03-17T07:14:14;24.50;;;10.80;;
84023;SDS011;74109;45.636;25.582;2024-03-17T07:16:42;28.20;;;9.90;;
84023;SDS011;74109;45.636;25.582;2024-03-17T07:19:10;24.30;;;10.70;;
84023;SDS011;74109;45.636;25.582;2024-03-17T07:21:38;19.10;;;8.80;;
84023;SDS011;74109;45.636;25.582;2024-03-17T07:24:06;21.10;;;10.90;;
84023;SDS011;74109;45.636;25.582;2024-03-17T07:26:34;23.60;;;11.90;;
84023;SDS011;74109;45.636;25.582;2024-03-17T07:29:03;23.10;;;11.20;;
84023;SDS011;74109;45.636;25.582;2024-03-17T07:31:31;23.20;;;10.60;;
84023;SDS011;74109;45.636;25.582;2024-03-17T07:33:59;24.70;;;12.00;;
84023;SDS011;74109;45.636;25.582;2024-03-17T07:36:28;26.40;;;12.70;;
84023;SDS011;74109;45.636;25.582;2024-03-17T07:38:56;25.80;;;11.20;;
84023;SDS011;74109;45.636;25.582;2024-03-17T07:41:24;26.10;;;10.70;;
84023;SDS011;74109;45.636;25.582;2024-03-17T07:43:52;24.70;;;12.10;;
84023;SDS011;74109;45.636;25.582;2024-03-17T07:46:20;20.10;;;10.30;;
84023;SDS011;74109;45.636;25.582;2024-03-17T07:48:48;21.10;;;9.70;;
84023;SDS011;74109;45.636;25.582;2024-03-17T07:51:17;25.70;;;11.90;;
84023;SDS011;74109;45.636;25.582;2024-03-17T07:53:45;26.50;;;12.00;;
84023;SDS011;74109;45.636;25.582;2024-03-17T07:56:15;30.10;;;12.80;;
84023;SDS011;74109;45.636;25.582;2024-03-17T07:58:44;22.70;;;11.30;;
84023;SDS011;74109;45.636;25.582;2024-03-17T08:01:13;24.20;;;12.00;;
84023;SDS011;74109;45.636;25.582;2024-03-17T08:03:46;22.70;;;11.60;;
84023;SDS011;74109;45.636;25.582;2024-03-17T08:06:21;22.00;;;9.80;;
84023;SDS011;74109;45.636;25.582;2024-03-17T08:08:50;21.70;;;9.50;;
84023;SDS011;74109;45.636;25.582;2024-03-17T08:11:18;23.50;;;11.50;;
84023;SDS011;74109;45.636;25.582;2024-03-17T08:13:46;20.30;;;10.00;;
84023;SDS011;74109;45.636;25.582;2024-03-17T08:16:15;19.00;;;9.10;;
84023;SDS011;74109;45.636;25.582;2024-03-17T08:18:44;16.40;;;8.50;;
84023;SDS011;74109;45.636;25.582;2024-03-17T08:21:13;21.90;;;10.40;;
84023;SDS011;74109;45.636;25.582;2024-03-17T08:23:42;22.10;;;10.30;;
84023;SDS011;74109;45.636;25.582;2024-03-17T08:26:10;25.20;;;12.20;;
84023;SDS011;74109;45.636;25.582;2024-03-17T08:28:39;21.10;;;9.30;;
84023;SDS011;74109;45.636;25.582;2024-03-17T08:31:07;16.70;;;8.60;;
84023;SDS011;74109;45.636;25.582;2024-03-17T08:33:36;11.40;;;5.70;;
84023;SDS011;74109;45.636;25.582;2024-03-17T08:36:04;9.10;;;4.60;;
84023;SDS011;74109;45.636;25.582;2024-03-17T08:38:37;10.60;;;5.10;;
84023;SDS011;74109;45.636;25.582;2024-03-17T08:41:07;11.60;;;4.90;;
84023;SDS011;74109;45.636;25.582;2024-03-17T08:43:37;11.10;;;5.20;;
84023;SDS011;74109;45.636;25.582;2024-03-17T08:46:09;20.80;;;9.10;;
84023;SDS011;74109;45.636;25.582;2024-03-17T08:48:40;15.90;;;7.80;;
84023;SDS011;74109;45.636;25.582;2024-03-17T08:51:10;19.10;;;9.40;;
84023;SDS011;74109;45.636;25.582;2024-03-17T08:53:38;17.10;;;8.20;;
84023;SDS011;74109;45.636;25.582;2024-03-17T08:56:07;17.10;;;8.40;;
84023;SDS011;74109;45.636;25.582;2024-03-17T08:58:35;13.90;;;6.70;;
84023;SDS011;74109;45.636;25.582;2024-03-17T09:01:04;12.30;;;6.40;;
84023;SDS011;74109;45.636;25.582;2024-03-17T09:03:34;12.00;;;5.60;;
84023;SDS011;74109;45.636;25.582;2024-03-17T09:06:03;11.80;;;5.70;;
84023;SDS011;74109;45.636;25.582;2024-03-17T09:08:32;13.70;;;6.90;;
84023;SDS011;74109;45.636;25.582;2024-03-17T09:11:01;12.30;;;6.70;;
84023;SDS011;74109;45.636;25.582;2024-03-17T09:13:29;12.90;;;6.60;;
84023;SDS011;74109;45.636;25.582;2024-03-17T09:15:58;12.60;;;5.30;;
84023;SDS011;74109;45.636;25.582;2024-03-17T09:18:30;12.80;;;5.80;;
84023;SDS011;74109;45.636;25.582;2024-03-17T09:21:03;11.80;;;6.60;;
84023;SDS011;74109;45.636;25.582;2024-03-17T09:23:32;14.10;;;6.50;;
84023;SDS011;74109;45.636;25.582;2024-03-17T09:26:05;15.30;;;6.00;;
84023;SDS011;74109;45.636;25.582;2024-03-17T09:28:37;13.40;;;6.60;;
84023;SDS011;74109;45.636;25.582;2024-03-17T09:31:05;12.30;;;6.50;;
84023;SDS011;74109;45.636;25.582;2024-03-17T09:33:35;12.30;;;6.70;;
84023;SDS011;74109;45.636;25.582;2024-03-17T09:36:07;12.10;;;6.30;;
84023;SDS011;74109;45.636;25.582;2024-03-17T09:38:38;10.80;;;5.50;;
84023;SDS011;74109;45.636;25.582;2024-03-17T09:41:06;12.50;;;5.90;;
84023;SDS011;74109;45.636;25.582;2024-03-17T09:43:35;10.70;;;5.20;;
84023;SDS011;74109;45.636;25.582;2024-03-17T09:46:04;17.10;;;6.90;;
84023;SDS011;74109;45.636;25.582;2024-03-17T09:48:33;13.20;;;6.20;;
84023;SDS011;74109;45.636;25.582;2024-03-17T09:51:02;13.10;;;5.70;;
84023;SDS011;74109;45.636;25.582;2024-03-17T09:53:34;11.50;;;7.30;;
84023;SDS011;74109;45.636;25.582;2024-03-17T09:56:08;15.20;;;7.20;;
84023;SDS011;74109;45.636;25.582;2024-03-17T09:58:43;12.10;;;6.20;;
84023;SDS011;74109;45.636;25.582;2024-03-17T10:01:12;12.60;;;7.00;;
84023;SDS011;74109;45.636;25.582;2024-03-17T10:03:47;14.40;;;7.40;;
84023;SDS011;74109;45.636;25.582;2024-03-17T10:06:19;14.30;;;7.20;;
84023;SDS011;74109;45.636;25.582;2024-03-17T10:08:52;15.20;;;7.30;;
84023;SDS011;74109;45.636;25.582;2024-03-17T10:11:22;15.30;;;7.50;;
84023;SDS011;74109;45.636;25.582;2024-03-17T10:14:17;16.40;;;7.30;;
84023;SDS011;74109;45.636;25.582;2024-03-17T10:16:46;15.40;;;7.00;;
84023;SDS011;74109;45.636;25.582;2024-03-17T10:19:23;17.10;;;7.90;;
84023;SDS011;74109;45.636;25.582;2024-03-17T10:22:00;16.60;;;7.20;;
84023;SDS011;74109;45.636;25.582;2024-03-17T10:24:29;15.70;;;7.70;;
84023;SDS011;74109;45.636;25.582;2024-03-17T10:26:57;12.90;;;7.20;;
84023;SDS011;74109;45.636;25.582;2024-03-17T10:29:27;12.10;;;7.00;;
84023;SDS011;74109;45.636;25.582;2024-03-17T10:32:02;18.40;;;8.20;;
84023;SDS011;74109;45.636;25.582;2024-03-17T10:34:31;16.70;;;8.20;;
84023;SDS011;74109;45.636;25.582;2024-03-17T10:37:11;15.20;;;6.90;;
84023;SDS011;74109;45.636;25.582;2024-03-17T10:39:43;14.00;;;7.00;;
84023;SDS011;74109;45.636;25.582;2024-03-17T10:42:12;15.70;;;7.00;;
84023;SDS011;74109;45.636;25.582;2024-03-17T10:44:45;12.90;;;6.20;;
84023;SDS011;74109;45.636;25.582;2024-03-17T10:47:23;15.00;;;7.70;;
84023;SDS011;74109;45.636;25.582;2024-03-17T10:49:53;14.40;;;7.90;;
84023;SDS011;74109;45.636;25.582;2024-03-17T10:52:23;18.50;;;6.80;;
84023;SDS011;74109;45.636;25.582;2024-03-17T10:55:11;14.30;;;6.10;;
84023;SDS011;74109;45.636;25.582;2024-03-17T10:57:52;9.90;;;5.20;;
84023;SDS011;74109;45.636;25.582;2024-03-17T11:00:26;17.20;;;6.50;;
84023;SDS011;74109;45.636;25.582;2024-03-17T11:02:57;12.90;;;6.70;;
84023;SDS011;74109;45.636;25.582;2024-03-17T11:05:26;14.60;;;7.20;;
84023;SDS011;74109;45.636;25.582;2024-03-17T11:08:01;11.90;;;5.80;;
84023;SDS011;74109;45.636;25.582;2024-03-17T11:10:33;11.90;;;5.60;;
84023;SDS011;74109;45.636;25.582;2024-03-17T11:13:04;13.50;;;6.80;;
84023;SDS011;74109;45.636;25.582;2024-03-17T11:20:41;15.30;;;8.10;;
84023;SDS011;74109;45.636;25.582;2024-03-17T11:23:12;14.50;;;7.70;;
84023;SDS011;74109;45.636;25.582;2024-03-17T11:25:55;15.30;;;6.90;;
84023;SDS011;74109;45.636;25.582;2024-03-17T11:34:03;15.30;;;6.90;;
84023;SDS011;74109;45.636;25.582;2024-03-17T11:41:43;16.40;;;7.70;;
84023;SDS011;74109;45.636;25.582;2024-03-17T11:46:56;14.90;;;7.90;;
84023;SDS011;74109;45.636;25.582;2024-03-17T11:49:39;16.10;;;7.70;;
84023;SDS011;74109;45.636;25.582;2024-03-17T11:52:12;18.10;;;9.30;;
84023;SDS011;74109;45.636;25.582;2024-03-17T11:54:43;17.90;;;7.90;;
84023;SDS011;74109;45.636;25.582;2024-03-17T11:57:13;18.30;;;8.50;;
84023;SDS011;74109;45.636;25.582;2024-03-17T11:59:44;15.70;;;8.10;;
84023;SDS011;74109;45.636;25.582;2024-03-17T12:02:22;22.90;;;10.20;;
84023;SDS011;74109;45.636;25.582;2024-03-17T12:04:57;27.20;;;12.50;;
84023;SDS011;74109;45.636;25.582;2024-03-17T12:07:26;29.00;;;12.80;;
84023;SDS011;74109;45.636;25.582;2024-03-17T12:09:55;30.50;;;13.30;;
84023;SDS011;74109;45.636;25.582;2024-03-17T12:12:25;28.70;;;13.50;;
84023;SDS011;74109;45.636;25.582;2024-03-17T12:15:11;25.40;;;12.00;;
84023;SDS011;74109;45.636;25.582;2024-03-17T12:17:46;25.40;;;11.40;;
84023;SDS011;74109;45.636;25.582;2024-03-17T12:20:17;27.20;;;12.60;;
84023;SDS011;74109;45.636;25.582;2024-03-17T12:22:47;23.70;;;11.40;;
84023;SDS011;74109;45.636;25.582;2024-03-17T12:25:19;13.50;;;6.90;;
84023;SDS011;74109;45.636;25.582;2024-03-17T12:27:49;14.30;;;6.50;;
84023;SDS011;74109;45.636;25.582;2024-03-17T12:30:17;15.40;;;7.70;;
84023;SDS011;74109;45.636;25.582;2024-03-17T12:32:46;14.50;;;7.10;;
84023;SDS011;74109;45.636;25.582;2024-03-17T12:35:15;13.80;;;7.70;;
84023;SDS011;74109;45.636;25.582;2024-03-17T12:37:45;15.30;;;6.70;;
84023;SDS011;74109;45.636;25.582;2024-03-17T12:40:20;12.00;;;5.90;;
84023;SDS011;74109;45.636;25.582;2024-03-17T12:42:51;12.60;;;6.20;;
84023;SDS011;74109;45.636;25.582;2024-03-17T12:45:22;10.50;;;5.90;;
84023;SDS011;74109;45.636;25.582;2024-03-17T12:47:50;12.60;;;5.90;;
84023;SDS011;74109;45.636;25.582;2024-03-17T12:50:20;12.30;;;6.00;;
84023;SDS011;74109;45.636;25.582;2024-03-17T12:52:52;12.50;;;6.20;;
84023;SDS011;74109;45.636;25.582;2024-03-17T12:55:21;11.90;;;4.90;;
84023;SDS011;74109;45.636;25.582;2024-03-17T12:58:09;12.00;;;5.50;;
84023;SDS011;74109;45.636;25.582;2024-03-17T13:00:58;9.50;;;4.40;;
84023;SDS011;74109;45.636;25.582;2024-03-17T13:03:33;12.30;;;5.90;;
84023;SDS011;74109;45.636;25.582;2024-03-17T13:06:03;9.20;;;4.10;;
84023;SDS011;74109;45.636;25.582;2024-03-17T13:08:35;10.20;;;4.20;;
84023;SDS011;74109;45.636;25.582;2024-03-17T13:11:04;9.00;;;3.60;;
84023;SDS011;74109;45.636;25.582;2024-03-17T13:13:37;7.00;;;2.90;;
84023;SDS011;74109;45.636;25.582;2024-03-17T13:16:08;6.70;;;3.70;;
84023;SDS011;74109;45.636;25.582;2024-03-17T13:18:40;8.50;;;3.90;;
84023;SDS011;74109;45.636;25.582;2024-03-17T13:21:08;8.60;;;2.90;;
84023;SDS011;74109;45.636;25.582;2024-03-17T13:23:36;7.50;;;3.20;;
84023;SDS011;74109;45.636;25.582;2024-03-17T13:26:04;4.40;;;2.50;;
84023;SDS011;74109;45.636;25.582;2024-03-17T13:28:32;5.50;;;2.80;;
84023;SDS011;74109;45.636;25.582;2024-03-17T13:31:00;4.20;;;2.10;;
84023;SDS011;74109;45.636;25.582;2024-03-17T13:33:29;6.90;;;2.90;;
84023;SDS011;74109;45.636;25.582;2024-03-17T13:35:57;4.30;;;2.30;;
84023;SDS011;74109;45.636;25.582;2024-03-17T13:38:25;4.50;;;2.00;;
84023;SDS011;74109;45.636;25.582;2024-03-17T13:40:53;7.20;;;2.80;;
84023;SDS011;74109;45.636;25.582;2024-03-17T13:43:21;4.80;;;2.10;;
84023;SDS011;74109;45.636;25.582;2024-03-17T13:45:49;4.30;;;2.40;;
84023;SDS011;74109;45.636;25.582;2024-03-17T13:48:17;6.30;;;2.40;;
84023;SDS011;74109;45.636;25.582;2024-03-17T13:50:45;4.60;;;2.40;;
84023;SDS011;74109;45.636;25.582;2024-03-17T13:53:14;4.90;;;2.40;;
84023;SDS011;74109;45.636;25.582;2024-03-17T13:55:42;4.70;;;2.50;;
84023;SDS011;74109;45.636;25.582;2024-03-17T13:58:10;5.40;;;2.80;;
84023;SDS011;74109;45.636;25.582;2024-03-17T14:00:40;5.10;;;2.30;;
84023;SDS011;74109;45.636;25.582;2024-03-17T14:03:10;4.40;;;1.90;;
84023;SDS011;74109;45.636;25.582;2024-03-17T14:05:38;6.50;;;2.70;;
84023;SDS011;74109;45.636;25.582;2024-03-17T14:08:06;4.50;;;2.30;;
84023;SDS011;74109;45.636;25.582;2024-03-17T14:10:34;4.00;;;2.20;;
84023;SDS011;74109;45.636;25.582;2024-03-17T14:13:03;5.00;;;2.60;;
84023;SDS011;74109;45.636;25.582;2024-03-17T14:15:32;5.30;;;2.10;;
84023;SDS011;74109;45.636;25.582;2024-03-17T14:18:01;5.30;;;2.30;;
84023;SDS011;74109;45.636;25.582;2024-03-17T14:20:33;5.80;;;2.90;;
84023;SDS011;74109;45.636;25.582;2024-03-17T14:23:01;4.90;;;2.00;;
84023;SDS011;74109;45.636;25.582;2024-03-17T14:25:31;10.20;;;2.80;;
84023;SDS011;74109;45.636;25.582;2024-03-17T14:27:59;4.20;;;2.00;;
84023;SDS011;74109;45.636;25.582;2024-03-17T14:30:27;6.60;;;3.20;;
84023;SDS011;74109;45.636;25.582;2024-03-17T14:32:55;7.00;;;3.00;;
84023;SDS011;74109;45.636;25.582;2024-03-17T14:35:23;5.70;;;2.20;;
84023;SDS011;74109;45.636;25.582;2024-03-17T14:37:51;5.10;;;2.70;;
84023;SDS011;74109;45.636;25.582;2024-03-17T14:40:20;6.70;;;3.20;;
84023;SDS011;74109;45.636;25.582;2024-03-17T14:42:51;7.80;;;3.10;;
84023;SDS011;74109;45.636;25.582;2024-03-17T14:45:19;7.50;;;3.40;;
84023;SDS011;74109;45.636;25.582;2024-03-17T14:47:49;9.90;;;4.90;;
84023;SDS011;74109;45.636;25.582;2024-03-17T14:50:17;9.60;;;4.50;;
84023;SDS011;74109;45.636;25.582;2024-03-17T14:52:46;9.60;;;4.80;;
84023;SDS011;74109;45.636;25.582;2024-03-17T14:55:14;12.60;;;4.80;;
84023;SDS011;74109;45.636;25.582;2024-03-17T14:57:42;10.10;;;4.60;;
84023;SDS011;74109;45.636;25.582;2024-03-17T15:00:11;10.50;;;4.60;;
84023;SDS011;74109;45.636;25.582;2024-03-17T15:02:47;8.20;;;3.40;;